Rechercher aéroport 
image banner adimage banner adimage banner ad
image banner ad

KAXQ - Clarion County

Situé à Clarion, United States

ICAO - AXQ, IATA -

Données fournies par Airmate  

Information générale

Coordonnées: N41°13'30" W79°26'32"
Élévation : 1458 feet MSL.
Variation magnétique : -10° East
Voir autres Aéroports à Pennsylvania

Données opérationnelles

Special qualification required
Heure actuelle UTC:
Heure actuelle locale:
Météo à : KFKL - Venango Rgnl ( 39 km )
METAR: KFKL 131856Z AUTO 22003KT 10SM BKN042 BKN050 BKN065 26/18 A2989 RMK AO2 SLP112 T02610178
TAF: KFKL 131720Z 1318/1418 28005KT P6SM VCTS BKN050CB FM132200 32006KT P6SM SCT060 FM140500 00000KT P6SM SCT250 FM141300 29005KT P6SM SCT060
Voir NOTAMs / SUP AIP / TFR affectant cet aéroport [VIEW]
Fréquences de communication: [VIEW]

Pistes:

Identifiant RWYQFULongueur (ft)Largeur (ft)SurfaceLDA (ft)
0645°500375ASPH
24225°500375ASPH

Coordonnées de l'aéroport

Adresse: Clarion United States

Autres services d'aviation

Écoles de pilotage

Clarion County Airport Authority

Clarion County Airport Authority

Vue satellite de KAXQ